Time;durP1;ratioP1;P1;durP2;ratioP2;P2;SDS_P1;SDS_P2;PMS_P1;PMS_P2;Temp;Humidity;BMP_temperature;BMP_pressure;BME280_temperature;BME280_humidity;BME280_pressure;Samples;Min_cycle;Max_cycle;Signal;HPM_P1;HPM_P2
2024/01/09 00:07:30;;;;;;;27.70;18.70;;;;;;;-15.30;94.74;101409.30;434233;1256;141079;-62
2024/01/09 00:17:35;;;;;;;27.70;18.90;;;;;;;-15.25;95.60;101417.77;434242;1258;140764;-61
2024/01/09 00:27:41;;;;;;;32.60;21.10;;;;;;;-15.14;95.45;101424.87;433788;1258;140880;-62
2024/01/09 00:37:47;;;;;;;28.50;18.80;;;;;;;-15.07;95.55;101430.70;434229;1258;141599;-61
2024/01/09 00:47:53;;;;;;;27.70;19.30;;;;;;;-15.11;95.28;101436.86;435267;1254;140815;-61
2024/01/09 00:57:59;;;;;;;27.20;19.20;;;;;;;-15.15;95.24;101443.59;433818;1258;142984;-61
2024/01/09 01:08:06;;;;;;;27.00;19.10;;;;;;;-15.17;94.94;101450.37;433775;1258;142419;-61
2024/01/09 01:18:12;;;;;;;33.10;23.00;;;;;;;-15.22;94.82;101448.52;433871;1258;142332;-62
2024/01/09 01:28:18;;;;;;;29.60;19.20;;;;;;;-15.24;95.05;101446.04;433806;1259;140313;-61
2024/01/09 01:38:23;;;;;;;28.20;20.20;;;;;;;-15.26;94.95;101433.35;433770;1256;142209;-62
2024/01/09 01:48:30;;;;;;;30.40;23.60;;;;;;;-15.30;94.77;101428.13;433729;1256;142623;-61
2024/01/09 01:58:37;;;;;;;28.40;19.90;;;;;;;-15.37;94.90;101427.84;435284;1255;142284;-61
2024/01/09 02:08:44;;;;;;;28.70;20.90;;;;;;;-15.43;95.00;101426.27;433615;1258;140933;-61
2024/01/09 02:18:50;;;;;;;41.80;29.60;;;;;;;-15.47;95.35;101428.14;437990;1256;142230;-61
2024/01/09 02:29:02;;;;;;;39.10;28.40;;;;;;;-15.52;95.39;101439.23;433487;1258;305562;-61
2024/01/09 02:39:08;;;;;;;45.00;27.20;;;;;;;-15.60;95.55;101453.11;438311;1256;143302;-61
2024/01/09 02:49:14;;;;;;;45.80;31.80;;;;;;;-15.64;95.77;101462.18;433554;1256;140762;-62
2024/01/09 02:59:23;;;;;;;39.60;29.10;;;;;;;-15.69;96.00;101456.35;434444;1258;140918;-61
2024/01/09 03:09:29;;;;;;;41.20;30.60;;;;;;;-15.76;96.25;101461.66;435594;1258;142460;-61
2024/01/09 03:19:36;;;;;;;54.40;36.40;;;;;;;-15.82;95.99;101464.10;433430;1259;140712;-61
2024/01/09 03:29:42;;;;;;;48.90;33.30;;;;;;;-15.85;96.22;101465.89;434977;1254;140639;-61
2024/01/09 03:39:48;;;;;;;49.50;35.10;;;;;;;-15.91;96.16;101467.19;433449;1258;141949;-61
2024/01/09 03:49:54;;;;;;;49.30;31.60;;;;;;;-15.96;96.50;101472.86;433710;1258;142122;-62
2024/01/09 04:00:00;;;;;;;48.90;31.30;;;;;;;-15.98;96.75;101480.77;433570;1259;142655;-61
2024/01/09 04:10:07;;;;;;;50.90;33.50;;;;;;;-16.02;96.79;101483.02;434588;1259;141330;-60
2024/01/09 04:20:14;;;;;;;51.20;32.60;;;;;;;-16.07;96.67;101484.34;434071;1259;140935;-61
2024/01/09 04:30:20;;;;;;;44.90;31.80;;;;;;;-16.11;96.56;101480.85;435858;1259;140919;-61
2024/01/09 04:40:27;;;;;;;55.10;35.00;;;;;;;-16.10;96.96;101488.95;437326;1258;142150;-62
2024/01/09 04:50:34;;;;;;;99.30;58.70;;;;;;;-16.05;97.08;101489.17;437323;1259;140822;-62
2024/01/09 05:00:39;;;;;;;84.10;52.50;;;;;;;-15.94;97.22;101480.73;433462;1256;140854;-62
2024/01/09 05:10:45;;;;;;;77.40;47.50;;;;;;;-15.87;97.42;101480.21;433526;1258;142628;-60
2024/01/09 05:20:51;;;;;;;65.30;42.80;;;;;;;-15.87;97.37;101491.77;433402;1257;140813;-60
2024/01/09 05:30:57;;;;;;;57.70;40.40;;;;;;;-15.86;97.41;101494.16;433759;1255;141820;-60
2024/01/09 05:41:03;;;;;;;87.00;56.80;;;;;;;-15.80;98.18;101498.31;433678;1257;140293;-61
2024/01/09 05:51:09;;;;;;;110.70;75.60;;;;;;;-15.69;98.26;101496.42;435896;1260;141629;-61
2024/01/09 06:01:15;;;;;;;94.50;64.70;;;;;;;-15.69;98.32;101496.11;433922;1257;141014;-62
2024/01/09 06:11:21;;;;;;;96.10;64.90;;;;;;;-15.73;98.42;101494.30;433696;1258;142701;-61
2024/01/09 06:21:27;;;;;;;78.60;54.50;;;;;;;-15.78;98.26;101498.83;433399;1258;142655;-61
2024/01/09 06:31:33;;;;;;;76.50;53.90;;;;;;;-15.82;97.93;101504.10;433533;1259;142958;-62
2024/01/09 06:41:38;;;;;;;66.00;47.80;;;;;;;-15.81;98.13;101515.36;433611;1259;141174;-61
2024/01/09 06:51:45;;;;;;;91.20;60.70;;;;;;;-15.75;98.64;101524.06;433282;1256;141230;-62
2024/01/09 07:01:51;;;;;;;80.50;52.70;;;;;;;-15.66;98.60;101538.96;433866;1260;142765;-61
2024/01/09 07:11:57;;;;;;;71.20;50.30;;;;;;;-15.47;98.92;101542.37;434066;1258;141051;-65
2024/01/09 07:22:03;;;;;;;73.10;53.50;;;;;;;-15.16;99.29;101534.14;450625;1254;141121;-69
2024/01/09 07:32:09;;;;;;;91.60;59.40;;;;;;;-14.60;99.76;101538.81;433814;1259;141360;-65
2024/01/09 07:42:15;;;;;;;81.50;48.10;;;;;;;-13.50;100.00;101541.17;436450;1257;141544;-66
2024/01/09 07:52:21;;;;;;;65.80;40.00;;;;;;;-11.75;100.00;101551.61;433743;1254;140876;-60
2024/01/09 08:02:29;;;;;;;63.20;39.90;;;;;;;-8.68;100.00;101543.86;433826;1258;140960;-64
2024/01/09 08:12:35;;;;;;;69.20;44.00;;;;;;;-4.97;98.57;101540.30;433438;1260;141841;-65
2024/01/09 08:22:41;;;;;;;60.50;41.80;;;;;;;-1.69;96.24;101535.89;438198;1259;139924;-68
2024/01/09 08:32:47;;;;;;;62.20;44.60;;;;;;;1.31;92.41;101538.30;433894;1258;161804;-66
2024/01/09 08:42:53;;;;;;;58.80;45.30;;;;;;;3.30;88.31;101546.45;434094;1259;139757;-69
2024/01/09 08:52:59;;;;;;;61.30;44.10;;;;;;;4.75;85.13;101550.20;434128;1254;140394;-69
2024/01/09 09:03:06;;;;;;;50.20;38.30;;;;;;;6.55;83.90;101550.84;434233;1256;140309;-73
2024/01/09 09:13:11;;;;;;;50.40;41.70;;;;;;;8.03;80.38;101552.48;435513;1259;139237;-63
2024/01/09 09:23:17;;;;;;;51.20;39.70;;;;;;;9.61;77.85;101544.73;434118;1258;139533;-74
2024/01/09 09:33:23;;;;;;;55.20;40.80;;;;;;;10.40;73.27;101533.12;435027;1259;138972;-65
2024/01/09 09:43:29;;;;;;;54.10;40.10;;;;;;;9.93;69.11;101533.12;438067;1255;139485;-68
2024/01/09 09:53:36;;;;;;;56.40;40.60;;;;;;;5.73;64.79;101540.35;434597;1258;138733;-68
2024/01/09 10:03:50;;;;;;;45.70;29.30;;;;;;;1.76;65.05;101535.52;433962;1258;139167;-67
2024/01/09 10:13:57;;;;;;;37.00;24.50;;;;;;;-0.84;65.79;101537.56;435000;1258;139583;-76
2024/01/09 10:24:03;;;;;;;32.60;22.80;;;;;;;-2.52;66.44;101526.05;434587;1259;139724;-71
2024/01/09 10:34:09;;;;;;;45.70;29.00;;;;;;;-3.78;61.99;101520.39;434055;1254;139001;-70
2024/01/09 10:44:17;;;;;;;55.70;35.30;;;;;;;-4.78;62.71;101510.46;434104;1258;139459;-60
2024/01/09 10:54:23;;;;;;;52.50;36.20;;;;;;;-5.48;63.74;101497.05;434888;1255;140678;-60
2024/01/09 11:04:29;;;;;;;48.90;29.90;;;;;;;-5.92;64.27;101486.71;433379;1256;140146;-64
2024/01/09 11:14:38;;;;;;;41.00;27.80;;;;;;;-6.23;64.87;101487.56;433156;1257;139865;-60
2024/01/09 11:24:48;;;;;;;37.40;28.40;;;;;;;-6.41;65.27;101487.08;433304;1258;140558;-61
2024/01/09 11:35:14;;;;;;;48.00;30.00;;;;;;;-6.50;65.94;101480.80;433592;1256;139485;-62
2024/01/09 11:45:24;;;;;;;35.60;21.80;;;;;;;-6.51;66.33;101480.25;435248;1255;141929;-61
2024/01/09 11:55:30;;;;;;;41.60;25.20;;;;;;;-6.49;66.07;101474.70;433579;1256;139213;-69
2024/01/09 12:05:36;;;;;;;35.20;24.20;;;;;;;-6.44;65.85;101474.34;433484;1256;139278;-68
2024/01/09 12:15:42;;;;;;;37.70;25.30;;;;;;;-6.43;66.03;101463.33;433138;1256;139340;-62
2024/01/09 12:25:49;;;;;;;33.90;23.40;;;;;;;-6.35;66.37;101453.54;433319;1258;139414;-62
2024/01/09 12:35:55;;;;;;;39.20;24.80;;;;;;;-6.29;66.27;101457.20;439049;1255;139791;-67
2024/01/09 12:46:02;;;;;;;33.90;21.90;;;;;;;-6.24;66.04;101459.21;433437;1254;139474;-69
2024/01/09 12:56:13;;;;;;;30.10;21.20;;;;;;;-6.20;66.07;101458.66;436682;1255;140156;-67
2024/01/09 13:06:20;;;;;;;28.00;17.90;;;;;;;-6.17;65.78;101455.01;434007;1255;139611;-67
2024/01/09 13:16:26;;;;;;;29.90;19.20;;;;;;;-6.16;65.76;101446.71;433390;1256;139348;-65
2024/01/09 13:26:32;;;;;;;32.70;20.60;;;;;;;-6.10;66.13;101445.04;433387;1258;139240;-68
2024/01/09 13:36:38;;;;;;;35.00;21.30;;;;;;;-6.09;65.91;101445.09;434593;1254;139360;-71
2024/01/09 13:46:44;;;;;;;38.40;21.10;;;;;;;-6.13;65.93;101441.18;433641;1256;140231;-76
2024/01/09 13:56:50;;;;;;;39.50;23.90;;;;;;;-6.13;66.29;101442.02;437386;1257;140665;-65
2024/01/09 14:06:56;;;;;;;29.30;18.60;;;;;;;-6.12;66.83;101436.28;434399;1258;140163;-68
2024/01/09 14:17:03;;;;;;;32.30;18.10;;;;;;;-6.18;67.24;101438.13;433669;1255;141497;-64
2024/01/09 14:27:09;;;;;;;42.30;22.60;;;;;;;-6.36;67.49;101428.10;436082;1254;199655;-63
2024/01/09 14:37:15;;;;;;;43.90;23.50;;;;;;;-6.63;67.78;101423.26;433498;1258;140382;-65
2024/01/09 14:47:21;;;;;;;39.50;25.50;;;;;;;-6.92;68.56;101420.16;436471;1255;139667;-70
2024/01/09 14:57:27;;;;;;;38.80;25.70;;;;;;;-7.24;69.08;101417.61;437194;1258;140524;-69
2024/01/09 15:07:36;;;;;;;47.90;31.60;;;;;;;-7.56;69.76;101418.08;436061;1255;141467;-62
2024/01/09 15:17:45;;;;;;;45.70;28.00;;;;;;;-7.88;70.38;101418.02;433548;1258;139614;-65
2024/01/09 15:27:53;;;;;;;47.30;30.00;;;;;;;-8.20;71.00;101410.05;435607;1256;139999;-67
2024/01/09 15:38:00;;;;;;;49.20;31.90;;;;;;;-8.52;71.60;101407.39;433630;1258;141340;-67
2024/01/09 15:48:08;;;;;;;57.10;34.50;;;;;;;-8.79;72.27;101411.99;433761;1255;140446;-67
2024/01/09 15:58:13;;;;;;;55.00;34.20;;;;;;;-9.04;72.87;101410.92;445893;1255;139875;-65
2024/01/09 16:08:20;;;;;;;55.80;35.30;;;;;;;-9.25;73.82;101417.55;433285;1254;140129;-64
2024/01/09 16:18:26;;;;;;;54.10;35.80;;;;;;;-9.44;74.84;101419.75;436171;1256;141328;-65
2024/01/09 16:28:32;;;;;;;58.10;37.90;;;;;;;-9.60;75.60;101414.09;433317;1258;140061;-64
2024/01/09 16:38:38;;;;;;;66.20;41.00;;;;;;;-9.80;76.36;101417.23;433365;1258;141133;-63
2024/01/09 16:48:47;;;;;;;66.90;40.80;;;;;;;-9.98;77.43;101423.44;433928;1258;140800;-64
2024/01/09 16:58:54;;;;;;;63.70;40.90;;;;;;;-10.16;78.54;101442.55;436494;1258;139775;-64
2024/01/09 17:09:00;;;;;;;88.60;53.00;;;;;;;-10.36;79.17;101448.52;433259;1256;141005;-63
2024/01/09 17:19:07;;;;;;;73.30;45.80;;;;;;;-10.50;79.82;101439.36;437765;1258;141110;-64
2024/01/09 17:29:13;;;;;;;80.00;54.40;;;;;;;-10.53;80.87;101433.64;433955;1254;142321;-69
2024/01/09 17:39:19;;;;;;;83.10;53.40;;;;;;;-10.63;81.07;101416.54;433518;1256;142012;-76
2024/01/09 17:49:25;;;;;;;90.70;56.90;;;;;;;-10.79;81.58;101413.19;433475;1256;140746;-64
2024/01/09 17:59:31;;;;;;;159.70;99.40;;;;;;;-10.92;82.65;101415.88;438126;1258;142028;-64
2024/01/09 18:09:37;;;;;;;134.00;89.20;;;;;;;-10.93;83.77;101408.39;433533;1258;140478;-64
2024/01/09 18:19:43;;;;;;;132.30;83.30;;;;;;;-11.02;84.05;101401.50;433583;1256;141768;-64
2024/01/09 18:29:49;;;;;;;116.80;75.90;;;;;;;-11.17;84.25;101392.59;433608;1258;141941;-64
2024/01/09 18:39:55;;;;;;;131.30;85.70;;;;;;;-11.33;84.83;101394.25;437551;1254;141633;-65
2024/01/09 18:50:05;;;;;;;153.80;93.70;;;;;;;-11.46;85.55;101390.36;434284;1256;141059;-64
2024/01/09 19:00:13;;;;;;;183.30;123.20;;;;;;;-11.56;86.43;101395.23;436080;1255;141118;-63
2024/01/09 19:10:19;;;;;;;182.60;118.20;;;;;;;-11.63;87.04;101402.09;434652;1256;141954;-64
2024/01/09 19:20:25;;;;;;;184.40;125.00;;;;;;;-11.71;87.37;101402.86;434158;1259;140927;-64
2024/01/09 19:30:32;;;;;;;189.90;126.40;;;;;;;-11.81;87.98;101400.93;433852;1258;142401;-63
2024/01/09 19:40:38;;;;;;;192.50;130.30;;;;;;;-11.91;88.32;101395.83;437773;1256;141840;-63
2024/01/09 19:50:45;;;;;;;202.90;134.80;;;;;;;-12.00;88.69;101396.20;434300;1258;142366;-64
2024/01/09 20:00:52;;;;;;;189.70;133.40;;;;;;;-12.09;89.01;101399.25;433804;1255;141270;-64
2024/01/09 20:10:58;;;;;;;224.70;147.20;;;;;;;-12.16;89.60;101393.42;433958;1260;141834;-63
2024/01/09 20:21:05;;;;;;;218.00;149.90;;;;;;;-12.24;90.01;101396.53;433497;1258;141965;-63
2024/01/09 20:31:12;;;;;;;234.50;155.30;;;;;;;-12.31;90.23;101394.77;433881;1255;142387;-63
2024/01/09 20:41:18;;;;;;;233.80;155.30;;;;;;;-12.40;90.66;101397.00;436559;1260;141049;-63
2024/01/09 20:51:24;;;;;;;243.90;158.90;;;;;;;-12.42;91.14;101404.95;433641;1259;143312;-63
2024/01/09 21:01:34;;;;;;;263.50;183.60;;;;;;;-12.50;91.27;101405.48;433736;1259;141111;-63
2024/01/09 21:11:40;;;;;;;231.00;157.20;;;;;;;-12.58;91.42;101396.79;437977;1258;141037;-62
2024/01/09 21:21:46;;;;;;;266.70;174.50;;;;;;;-12.63;91.81;101390.73;433596;1256;142054;-62
2024/01/09 21:31:54;;;;;;;266.00;174.20;;;;;;;-12.68;92.15;101380.70;433502;1255;143141;-63
2024/01/09 21:42:00;;;;;;;260.10;176.70;;;;;;;-12.72;92.26;101382.13;433688;1259;141410;-62
2024/01/09 21:52:08;;;;;;;249.00;168.30;;;;;;;-12.78;92.59;101379.39;440391;1258;141338;-62
2024/01/09 22:02:15;;;;;;;251.30;162.80;;;;;;;-12.83;92.77;101377.63;434720;1256;140918;-62
2024/01/09 22:12:21;;;;;;;235.00;158.00;;;;;;;-12.88;93.07;101370.57;440502;1255;140852;-62
2024/01/09 22:22:27;;;;;;;245.00;161.10;;;;;;;-12.91;93.21;101353.66;434035;1258;141799;-62
2024/01/09 22:32:33;;;;;;;248.20;159.30;;;;;;;-12.94;93.52;101356.02;433962;1258;141757;-62
2024/01/09 22:42:39;;;;;;;216.40;149.40;;;;;;;-13.00;93.73;101348.62;434362;1256;140780;-62
2024/01/09 22:52:45;;;;;;;230.40;152.90;;;;;;;-13.06;93.84;101353.14;434122;1255;140994;-65
2024/01/09 23:02:53;;;;;;;236.10;153.50;;;;;;;-13.07;94.27;101335.88;434093;1259;141217;-62
2024/01/09 23:13:00;;;;;;;191.30;129.80;;;;;;;-13.12;94.30;101329.54;436738;1258;143011;-67
2024/01/09 23:23:06;;;;;;;205.40;132.00;;;;;;;-13.13;94.53;101328.92;434408;1259;142036;-67
2024/01/09 23:33:12;;;;;;;180.90;118.50;;;;;;;-13.14;94.84;101333.63;437818;1259;140869;-63
2024/01/09 23:43:18;;;;;;;209.30;136.10;;;;;;;-13.15;94.95;101335.92;434227;1260;142053;-68
2024/01/09 23:53:24;;;;;;;162.10;102.90;;;;;;;-13.18;94.95;101319.36;435362;1256;141007;-61
